sensor_id;sensor_type;location;lat;lon;timestamp;P1;durP1;ratioP1;P2;durP2;ratioP2
12654;SDS011;6392;44.644;11.448;2023-02-08T00:02:14;21.20;;;9.87;;
12654;SDS011;6392;44.644;11.448;2023-02-08T00:04:41;15.83;;;9.47;;
12654;SDS011;6392;44.644;11.448;2023-02-08T00:07:08;19.80;;;10.70;;
12654;SDS011;6392;44.644;11.448;2023-02-08T00:09:37;22.83;;;10.63;;
12654;SDS011;6392;44.644;11.448;2023-02-08T00:12:04;16.47;;;10.20;;
12654;SDS011;6392;44.644;11.448;2023-02-08T00:14:31;26.17;;;10.50;;
12654;SDS011;6392;44.644;11.448;2023-02-08T00:16:58;19.40;;;10.20;;
12654;SDS011;6392;44.644;11.448;2023-02-08T00:19:25;22.90;;;11.17;;
12654;SDS011;6392;44.644;11.448;2023-02-08T00:21:52;21.70;;;11.13;;
12654;SDS011;6392;44.644;11.448;2023-02-08T00:24:19;19.73;;;10.57;;
12654;SDS011;6392;44.644;11.448;2023-02-08T00:26:48;23.27;;;11.40;;
12654;SDS011;6392;44.644;11.448;2023-02-08T00:29:15;18.67;;;10.90;;
12654;SDS011;6392;44.644;11.448;2023-02-08T00:31:42;24.40;;;11.73;;
12654;SDS011;6392;44.644;11.448;2023-02-08T00:34:09;18.53;;;11.23;;
12654;SDS011;6392;44.644;11.448;2023-02-08T00:36:36;22.50;;;11.50;;
12654;SDS011;6392;44.644;11.448;2023-02-08T00:39:03;20.77;;;10.37;;
12654;SDS011;6392;44.644;11.448;2023-02-08T00:41:30;21.03;;;10.47;;
12654;SDS011;6392;44.644;11.448;2023-02-08T00:43:58;19.80;;;11.13;;
12654;SDS011;6392;44.644;11.448;2023-02-08T00:46:25;19.47;;;9.70;;
12654;SDS011;6392;44.644;11.448;2023-02-08T00:48:52;16.47;;;10.00;;
12654;SDS011;6392;44.644;11.448;2023-02-08T00:51:20;16.07;;;10.63;;
12654;SDS011;6392;44.644;11.448;2023-02-08T00:53:47;18.17;;;9.43;;
12654;SDS011;6392;44.644;11.448;2023-02-08T00:56:15;19.33;;;10.60;;
12654;SDS011;6392;44.644;11.448;2023-02-08T00:58:42;21.27;;;10.47;;
12654;SDS011;6392;44.644;11.448;2023-02-08T01:01:11;19.83;;;10.40;;
12654;SDS011;6392;44.644;11.448;2023-02-08T01:03:39;19.70;;;10.03;;
12654;SDS011;6392;44.644;11.448;2023-02-08T01:06:07;23.30;;;9.77;;
12654;SDS011;6392;44.644;11.448;2023-02-08T01:08:35;20.77;;;9.77;;
12654;SDS011;6392;44.644;11.448;2023-02-08T01:11:04;20.07;;;10.20;;
12654;SDS011;6392;44.644;11.448;2023-02-08T01:13:33;24.83;;;10.93;;
12654;SDS011;6392;44.644;11.448;2023-02-08T01:16:05;22.80;;;10.60;;
12654;SDS011;6392;44.644;11.448;2023-02-08T01:18:34;18.67;;;9.80;;
12654;SDS011;6392;44.644;11.448;2023-02-08T01:21:05;18.43;;;10.30;;
12654;SDS011;6392;44.644;11.448;2023-02-08T01:23:34;19.03;;;10.53;;
12654;SDS011;6392;44.644;11.448;2023-02-08T01:26:03;21.83;;;10.83;;
12654;SDS011;6392;44.644;11.448;2023-02-08T01:28:31;23.50;;;11.27;;
12654;SDS011;6392;44.644;11.448;2023-02-08T01:30:59;18.17;;;11.00;;
12654;SDS011;6392;44.644;11.448;2023-02-08T01:33:32;16.43;;;9.27;;
12654;SDS011;6392;44.644;11.448;2023-02-08T01:36:01;18.07;;;10.63;;
12654;SDS011;6392;44.644;11.448;2023-02-08T01:38:33;20.10;;;10.63;;
12654;SDS011;6392;44.644;11.448;2023-02-08T01:41:03;21.53;;;10.43;;
12654;SDS011;6392;44.644;11.448;2023-02-08T01:43:32;19.83;;;10.47;;
12654;SDS011;6392;44.644;11.448;2023-02-08T01:46:01;19.00;;;10.60;;
12654;SDS011;6392;44.644;11.448;2023-02-08T01:48:29;19.00;;;10.33;;
12654;SDS011;6392;44.644;11.448;2023-02-08T01:51:02;20.50;;;9.87;;
12654;SDS011;6392;44.644;11.448;2023-02-08T01:53:34;18.83;;;9.87;;
12654;SDS011;6392;44.644;11.448;2023-02-08T01:56:03;16.27;;;10.07;;
12654;SDS011;6392;44.644;11.448;2023-02-08T01:58:34;20.03;;;10.00;;
12654;SDS011;6392;44.644;11.448;2023-02-08T02:01:05;18.27;;;10.07;;
12654;SDS011;6392;44.644;11.448;2023-02-08T02:03:33;20.13;;;10.73;;
12654;SDS011;6392;44.644;11.448;2023-02-08T02:06:04;22.07;;;9.53;;
12654;SDS011;6392;44.644;11.448;2023-02-08T02:08:34;19.10;;;9.57;;
12654;SDS011;6392;44.644;11.448;2023-02-08T02:11:01;22.37;;;9.87;;
12654;SDS011;6392;44.644;11.448;2023-02-08T02:13:28;15.73;;;9.60;;
12654;SDS011;6392;44.644;11.448;2023-02-08T02:15:57;19.03;;;8.60;;
12654;SDS011;6392;44.644;11.448;2023-02-08T02:18:26;17.00;;;9.57;;
12654;SDS011;6392;44.644;11.448;2023-02-08T02:21:00;21.67;;;10.17;;
12654;SDS011;6392;44.644;11.448;2023-02-08T02:29:46;20.70;;;10.00;;
12654;SDS011;6392;44.644;11.448;2023-02-08T02:32:53;18.13;;;9.57;;
12654;SDS011;6392;44.644;11.448;2023-02-08T02:35:33;15.83;;;8.67;;
12654;SDS011;6392;44.644;11.448;2023-02-08T02:38:06;18.63;;;9.43;;
12654;SDS011;6392;44.644;11.448;2023-02-08T02:40:42;17.37;;;8.47;;
12654;SDS011;6392;44.644;11.448;2023-02-08T02:43:17;18.30;;;8.40;;
12654;SDS011;6392;44.644;11.448;2023-02-08T02:46:06;16.57;;;8.83;;
12654;SDS011;6392;44.644;11.448;2023-02-08T02:48:44;13.27;;;7.27;;
12654;SDS011;6392;44.644;11.448;2023-02-08T02:51:19;15.93;;;8.23;;
12654;SDS011;6392;44.644;11.448;2023-02-08T02:53:51;13.57;;;8.20;;
12654;SDS011;6392;44.644;11.448;2023-02-08T02:56:23;16.47;;;8.20;;
12654;SDS011;6392;44.644;11.448;2023-02-08T02:58:53;16.50;;;8.17;;
12654;SDS011;6392;44.644;11.448;2023-02-08T03:01:24;18.37;;;8.57;;
12654;SDS011;6392;44.644;11.448;2023-02-08T03:03:52;16.50;;;8.13;;
12654;SDS011;6392;44.644;11.448;2023-02-08T03:06:22;16.73;;;8.93;;
12654;SDS011;6392;44.644;11.448;2023-02-08T03:08:59;20.60;;;8.77;;
12654;SDS011;6392;44.644;11.448;2023-02-08T03:11:54;20.13;;;8.53;;
12654;SDS011;6392;44.644;11.448;2023-02-08T03:14:32;14.37;;;8.30;;
12654;SDS011;6392;44.644;11.448;2023-02-08T03:17:12;14.37;;;8.27;;
12654;SDS011;6392;44.644;11.448;2023-02-08T03:19:57;14.80;;;8.47;;
12654;SDS011;6392;44.644;11.448;2023-02-08T03:22:32;19.30;;;8.63;;
12654;SDS011;6392;44.644;11.448;2023-02-08T03:25:09;11.83;;;7.70;;
12654;SDS011;6392;44.644;11.448;2023-02-08T03:27:43;18.13;;;8.87;;
12654;SDS011;6392;44.644;11.448;2023-02-08T03:30:18;14.27;;;8.43;;
12654;SDS011;6392;44.644;11.448;2023-02-08T03:32:55;18.50;;;9.70;;
12654;SDS011;6392;44.644;11.448;2023-02-08T03:35:30;16.97;;;8.63;;
12654;SDS011;6392;44.644;11.448;2023-02-08T03:38:00;16.77;;;8.23;;
12654;SDS011;6392;44.644;11.448;2023-02-08T03:40:30;16.67;;;9.47;;
12654;SDS011;6392;44.644;11.448;2023-02-08T03:43:02;12.20;;;8.63;;
12654;SDS011;6392;44.644;11.448;2023-02-08T03:45:35;16.27;;;9.40;;
12654;SDS011;6392;44.644;11.448;2023-02-08T03:48:06;15.90;;;8.77;;
12654;SDS011;6392;44.644;11.448;2023-02-08T03:50:38;17.27;;;8.80;;
12654;SDS011;6392;44.644;11.448;2023-02-08T03:53:06;19.67;;;10.07;;
12654;SDS011;6392;44.644;11.448;2023-02-08T03:55:35;19.30;;;9.17;;
12654;SDS011;6392;44.644;11.448;2023-02-08T03:58:05;16.20;;;8.73;;
12654;SDS011;6392;44.644;11.448;2023-02-08T04:00:38;17.50;;;9.10;;
12654;SDS011;6392;44.644;11.448;2023-02-08T04:03:09;20.33;;;8.93;;
12654;SDS011;6392;44.644;11.448;2023-02-08T04:05:42;16.20;;;8.77;;
12654;SDS011;6392;44.644;11.448;2023-02-08T04:08:09;18.30;;;8.67;;
12654;SDS011;6392;44.644;11.448;2023-02-08T04:10:36;15.57;;;8.80;;
12654;SDS011;6392;44.644;11.448;2023-02-08T04:13:03;18.23;;;9.73;;
12654;SDS011;6392;44.644;11.448;2023-02-08T04:15:31;16.43;;;8.87;;
12654;SDS011;6392;44.644;11.448;2023-02-08T04:17:58;13.33;;;8.97;;
12654;SDS011;6392;44.644;11.448;2023-02-08T04:20:25;14.97;;;8.80;;
12654;SDS011;6392;44.644;11.448;2023-02-08T04:22:53;17.50;;;9.57;;
12654;SDS011;6392;44.644;11.448;2023-02-08T04:25:20;16.83;;;8.77;;
12654;SDS011;6392;44.644;11.448;2023-02-08T04:27:47;22.00;;;10.27;;
12654;SDS011;6392;44.644;11.448;2023-02-08T04:30:14;18.30;;;9.27;;
12654;SDS011;6392;44.644;11.448;2023-02-08T04:32:41;14.70;;;9.07;;
12654;SDS011;6392;44.644;11.448;2023-02-08T04:35:08;16.00;;;8.17;;
12654;SDS011;6392;44.644;11.448;2023-02-08T04:37:35;17.27;;;9.47;;
12654;SDS011;6392;44.644;11.448;2023-02-08T04:40:04;17.80;;;8.60;;
12654;SDS011;6392;44.644;11.448;2023-02-08T04:42:31;16.50;;;8.97;;
12654;SDS011;6392;44.644;11.448;2023-02-08T04:44:58;17.87;;;8.40;;
12654;SDS011;6392;44.644;11.448;2023-02-08T04:47:25;23.60;;;10.33;;
12654;SDS011;6392;44.644;11.448;2023-02-08T04:49:52;18.33;;;9.03;;
12654;SDS011;6392;44.644;11.448;2023-02-08T04:52:19;19.10;;;9.97;;
12654;SDS011;6392;44.644;11.448;2023-02-08T04:54:46;21.63;;;8.77;;
12654;SDS011;6392;44.644;11.448;2023-02-08T04:57:14;19.83;;;8.93;;
12654;SDS011;6392;44.644;11.448;2023-02-08T04:59:41;16.43;;;8.63;;
12654;SDS011;6392;44.644;11.448;2023-02-08T05:02:08;17.90;;;9.30;;
12654;SDS011;6392;44.644;11.448;2023-02-08T05:04:35;17.30;;;9.23;;
12654;SDS011;6392;44.644;11.448;2023-02-08T05:07:02;19.80;;;8.93;;
12654;SDS011;6392;44.644;11.448;2023-02-08T05:09:29;17.47;;;9.13;;
12654;SDS011;6392;44.644;11.448;2023-02-08T05:11:56;16.27;;;9.10;;
12654;SDS011;6392;44.644;11.448;2023-02-08T05:14:25;19.43;;;9.77;;
12654;SDS011;6392;44.644;11.448;2023-02-08T05:16:52;17.57;;;9.03;;
12654;SDS011;6392;44.644;11.448;2023-02-08T05:19:19;23.70;;;9.97;;
12654;SDS011;6392;44.644;11.448;2023-02-08T05:21:46;15.90;;;9.40;;
12654;SDS011;6392;44.644;11.448;2023-02-08T05:24:13;16.87;;;9.03;;
12654;SDS011;6392;44.644;11.448;2023-02-08T05:26:40;18.40;;;9.13;;
12654;SDS011;6392;44.644;11.448;2023-02-08T05:29:07;17.23;;;9.90;;
12654;SDS011;6392;44.644;11.448;2023-02-08T05:31:36;21.30;;;9.90;;
12654;SDS011;6392;44.644;11.448;2023-02-08T05:34:03;17.97;;;10.13;;
12654;SDS011;6392;44.644;11.448;2023-02-08T05:36:30;17.57;;;8.63;;
12654;SDS011;6392;44.644;11.448;2023-02-08T05:38:57;17.90;;;9.40;;
12654;SDS011;6392;44.644;11.448;2023-02-08T05:41:24;24.57;;;11.33;;
12654;SDS011;6392;44.644;11.448;2023-02-08T05:43:51;17.03;;;9.53;;
12654;SDS011;6392;44.644;11.448;2023-02-08T05:46:18;18.67;;;9.90;;
12654;SDS011;6392;44.644;11.448;2023-02-08T05:48:46;16.50;;;9.57;;
12654;SDS011;6392;44.644;11.448;2023-02-08T05:51:13;17.97;;;9.77;;
12654;SDS011;6392;44.644;11.448;2023-02-08T05:53:41;19.90;;;10.07;;
12654;SDS011;6392;44.644;11.448;2023-02-08T05:56:09;18.60;;;9.73;;
12654;SDS011;6392;44.644;11.448;2023-02-08T05:58:36;19.47;;;9.77;;
12654;SDS011;6392;44.644;11.448;2023-02-08T06:01:06;19.23;;;9.60;;
12654;SDS011;6392;44.644;11.448;2023-02-08T06:03:35;17.27;;;10.40;;
12654;SDS011;6392;44.644;11.448;2023-02-08T06:06:04;18.27;;;10.03;;
12654;SDS011;6392;44.644;11.448;2023-02-08T06:08:34;22.30;;;10.03;;
12654;SDS011;6392;44.644;11.448;2023-02-08T06:11:02;17.97;;;10.23;;
12654;SDS011;6392;44.644;11.448;2023-02-08T06:13:29;18.33;;;10.50;;
12654;SDS011;6392;44.644;11.448;2023-02-08T06:15:56;16.33;;;8.80;;
12654;SDS011;6392;44.644;11.448;2023-02-08T06:18:23;20.53;;;9.50;;
12654;SDS011;6392;44.644;11.448;2023-02-08T06:20:51;15.63;;;9.67;;
12654;SDS011;6392;44.644;11.448;2023-02-08T06:23:19;15.43;;;9.80;;
12654;SDS011;6392;44.644;11.448;2023-02-08T06:25:47;20.50;;;9.80;;
12654;SDS011;6392;44.644;11.448;2023-02-08T06:28:14;17.87;;;10.27;;
12654;SDS011;6392;44.644;11.448;2023-02-08T06:30:41;23.20;;;11.17;;
12654;SDS011;6392;44.644;11.448;2023-02-08T06:33:09;22.43;;;10.27;;
12654;SDS011;6392;44.644;11.448;2023-02-08T06:35:36;19.17;;;9.93;;
12654;SDS011;6392;44.644;11.448;2023-02-08T06:38:03;16.73;;;9.40;;
12654;SDS011;6392;44.644;11.448;2023-02-08T06:40:32;18.73;;;9.60;;
12654;SDS011;6392;44.644;11.448;2023-02-08T06:42:59;16.27;;;9.87;;
12654;SDS011;6392;44.644;11.448;2023-02-08T06:45:26;19.23;;;10.83;;
12654;SDS011;6392;44.644;11.448;2023-02-08T06:47:53;21.07;;;9.87;;
12654;SDS011;6392;44.644;11.448;2023-02-08T06:50:20;21.47;;;11.20;;
12654;SDS011;6392;44.644;11.448;2023-02-08T06:52:47;23.87;;;10.70;;
12654;SDS011;6392;44.644;11.448;2023-02-08T06:55:14;20.20;;;10.63;;
12654;SDS011;6392;44.644;11.448;2023-02-08T06:57:42;17.40;;;9.93;;
12654;SDS011;6392;44.644;11.448;2023-02-08T07:00:10;23.67;;;8.80;;
12654;SDS011;6392;44.644;11.448;2023-02-08T07:02:38;17.47;;;10.03;;
12654;SDS011;6392;44.644;11.448;2023-02-08T07:05:05;17.27;;;8.90;;
12654;SDS011;6392;44.644;11.448;2023-02-08T07:07:32;16.50;;;8.83;;
12654;SDS011;6392;44.644;11.448;2023-02-08T07:09:59;21.60;;;10.23;;
12654;SDS011;6392;44.644;11.448;2023-02-08T07:12:26;18.93;;;10.03;;
12654;SDS011;6392;44.644;11.448;2023-02-08T07:14:55;18.93;;;10.10;;
12654;SDS011;6392;44.644;11.448;2023-02-08T07:17:22;20.07;;;10.10;;
12654;SDS011;6392;44.644;11.448;2023-02-08T07:19:49;19.97;;;9.97;;
12654;SDS011;6392;44.644;11.448;2023-02-08T07:22:16;19.23;;;10.10;;
12654;SDS011;6392;44.644;11.448;2023-02-08T07:24:43;24.27;;;10.37;;
12654;SDS011;6392;44.644;11.448;2023-02-08T07:27:11;19.67;;;10.53;;
12654;SDS011;6392;44.644;11.448;2023-02-08T07:29:39;16.10;;;10.60;;
12654;SDS011;6392;44.644;11.448;2023-02-08T07:32:08;20.80;;;10.30;;
12654;SDS011;6392;44.644;11.448;2023-02-08T07:34:36;19.87;;;10.47;;
12654;SDS011;6392;44.644;11.448;2023-02-08T07:37:04;18.10;;;11.00;;
12654;SDS011;6392;44.644;11.448;2023-02-08T07:39:32;17.10;;;10.40;;
12654;SDS011;6392;44.644;11.448;2023-02-08T07:41:59;19.17;;;11.40;;
12654;SDS011;6392;44.644;11.448;2023-02-08T07:44:26;17.57;;;11.10;;
12654;SDS011;6392;44.644;11.448;2023-02-08T07:46:53;23.83;;;12.10;;
12654;SDS011;6392;44.644;11.448;2023-02-08T07:49:21;21.00;;;10.50;;
12654;SDS011;6392;44.644;11.448;2023-02-08T07:51:48;25.50;;;11.27;;
12654;SDS011;6392;44.644;11.448;2023-02-08T07:54:15;21.80;;;11.97;;
12654;SDS011;6392;44.644;11.448;2023-02-08T07:56:42;20.57;;;11.03;;
12654;SDS011;6392;44.644;11.448;2023-02-08T07:59:09;20.07;;;10.93;;
12654;SDS011;6392;44.644;11.448;2023-02-08T08:01:36;19.50;;;10.50;;
12654;SDS011;6392;44.644;11.448;2023-02-08T08:04:03;20.53;;;11.30;;
12654;SDS011;6392;44.644;11.448;2023-02-08T08:06:32;20.57;;;11.83;;
12654;SDS011;6392;44.644;11.448;2023-02-08T08:08:59;25.47;;;10.77;;
12654;SDS011;6392;44.644;11.448;2023-02-08T08:11:26;20.63;;;11.33;;
12654;SDS011;6392;44.644;11.448;2023-02-08T08:13:53;21.17;;;10.97;;
12654;SDS011;6392;44.644;11.448;2023-02-08T08:16:20;20.93;;;11.77;;
12654;SDS011;6392;44.644;11.448;2023-02-08T08:18:47;17.37;;;10.70;;
12654;SDS011;6392;44.644;11.448;2023-02-08T08:21:14;22.57;;;11.50;;
12654;SDS011;6392;44.644;11.448;2023-02-08T08:23:43;20.47;;;10.60;;
12654;SDS011;6392;44.644;11.448;2023-02-08T08:26:11;18.37;;;11.07;;
12654;SDS011;6392;44.644;11.448;2023-02-08T08:28:39;26.57;;;10.63;;
12654;SDS011;6392;44.644;11.448;2023-02-08T08:31:10;24.70;;;12.03;;
12654;SDS011;6392;44.644;11.448;2023-02-08T08:33:39;22.93;;;10.77;;
12654;SDS011;6392;44.644;11.448;2023-02-08T08:36:06;21.57;;;11.03;;
12654;SDS011;6392;44.644;11.448;2023-02-08T08:38:34;21.80;;;11.53;;
12654;SDS011;6392;44.644;11.448;2023-02-08T08:41:06;19.80;;;10.70;;
12654;SDS011;6392;44.644;11.448;2023-02-08T08:43:34;18.80;;;10.80;;
12654;SDS011;6392;44.644;11.448;2023-02-08T08:46:01;17.93;;;10.03;;
12654;SDS011;6392;44.644;11.448;2023-02-08T08:48:30;21.50;;;10.53;;
12654;SDS011;6392;44.644;11.448;2023-02-08T08:50:57;20.77;;;12.00;;
12654;SDS011;6392;44.644;11.448;2023-02-08T08:53:24;18.90;;;9.67;;
12654;SDS011;6392;44.644;11.448;2023-02-08T08:55:52;18.97;;;10.00;;
12654;SDS011;6392;44.644;11.448;2023-02-08T08:58:20;21.30;;;11.37;;
12654;SDS011;6392;44.644;11.448;2023-02-08T09:00:47;22.27;;;10.27;;
12654;SDS011;6392;44.644;11.448;2023-02-08T09:03:14;23.00;;;11.40;;
12654;SDS011;6392;44.644;11.448;2023-02-08T09:05:41;22.23;;;11.00;;
12654;SDS011;6392;44.644;11.448;2023-02-08T09:08:08;19.13;;;10.10;;
12654;SDS011;6392;44.644;11.448;2023-02-08T09:10:37;18.27;;;10.17;;
12654;SDS011;6392;44.644;11.448;2023-02-08T09:13:04;22.40;;;11.13;;
12654;SDS011;6392;44.644;11.448;2023-02-08T09:15:33;18.23;;;10.00;;
12654;SDS011;6392;44.644;11.448;2023-02-08T09:18:03;20.20;;;9.93;;
12654;SDS011;6392;44.644;11.448;2023-02-08T09:20:30;18.40;;;9.57;;
12654;SDS011;6392;44.644;11.448;2023-02-08T09:22:57;19.87;;;11.07;;
12654;SDS011;6392;44.644;11.448;2023-02-08T09:25:24;19.70;;;11.17;;
12654;SDS011;6392;44.644;11.448;2023-02-08T09:27:52;19.10;;;10.53;;
12654;SDS011;6392;44.644;11.448;2023-02-08T09:30:19;24.00;;;11.03;;
12654;SDS011;6392;44.644;11.448;2023-02-08T09:32:47;18.20;;;9.80;;
12654;SDS011;6392;44.644;11.448;2023-02-08T09:35:14;18.93;;;11.70;;
12654;SDS011;6392;44.644;11.448;2023-02-08T09:37:41;23.83;;;11.63;;
12654;SDS011;6392;44.644;11.448;2023-02-08T09:40:12;20.17;;;10.17;;
12654;SDS011;6392;44.644;11.448;2023-02-08T09:42:48;19.17;;;10.50;;
12654;SDS011;6392;44.644;11.448;2023-02-08T09:45:31;18.47;;;10.40;;
12654;SDS011;6392;44.644;11.448;2023-02-08T09:48:13;22.00;;;11.10;;
12654;SDS011;6392;44.644;11.448;2023-02-08T09:50:45;19.50;;;10.63;;
12654;SDS011;6392;44.644;11.448;2023-02-08T09:53:17;23.00;;;11.07;;
12654;SDS011;6392;44.644;11.448;2023-02-08T09:55:48;18.67;;;10.83;;
12654;SDS011;6392;44.644;11.448;2023-02-08T09:58:20;21.27;;;11.80;;
12654;SDS011;6392;44.644;11.448;2023-02-08T10:00:52;25.07;;;11.23;;
12654;SDS011;6392;44.644;11.448;2023-02-08T10:06:05;18.03;;;10.87;;
12654;SDS011;6392;44.644;11.448;2023-02-08T10:08:33;20.70;;;11.40;;
12654;SDS011;6392;44.644;11.448;2023-02-08T10:11:04;24.13;;;10.93;;
12654;SDS011;6392;44.644;11.448;2023-02-08T10:16:48;24.93;;;11.60;;
12654;SDS011;6392;44.644;11.448;2023-02-08T10:19:34;20.23;;;11.00;;
12654;SDS011;6392;44.644;11.448;2023-02-08T10:22:14;21.97;;;10.60;;
12654;SDS011;6392;44.644;11.448;2023-02-08T10:24:59;19.27;;;10.90;;
12654;SDS011;6392;44.644;11.448;2023-02-08T10:27:52;27.40;;;12.60;;
12654;SDS011;6392;44.644;11.448;2023-02-08T10:30:31;21.77;;;10.63;;
12654;SDS011;6392;44.644;11.448;2023-02-08T10:33:05;20.00;;;10.00;;
12654;SDS011;6392;44.644;11.448;2023-02-08T10:35:41;20.77;;;11.37;;
12654;SDS011;6392;44.644;11.448;2023-02-08T10:38:22;18.77;;;10.40;;
12654;SDS011;6392;44.644;11.448;2023-02-08T10:40:50;18.70;;;10.80;;
12654;SDS011;6392;44.644;11.448;2023-02-08T10:43:23;23.30;;;11.20;;
12654;SDS011;6392;44.644;11.448;2023-02-08T10:46:00;19.60;;;9.50;;
12654;SDS011;6392;44.644;11.448;2023-02-08T10:48:37;19.40;;;10.27;;
12654;SDS011;6392;44.644;11.448;2023-02-08T10:51:13;22.03;;;12.20;;
12654;SDS011;6392;44.644;11.448;2023-02-08T10:53:42;17.73;;;10.63;;
12654;SDS011;6392;44.644;11.448;2023-02-08T10:56:14;20.57;;;10.87;;
12654;SDS011;6392;44.644;11.448;2023-02-08T10:58:58;18.97;;;10.53;;
12654;SDS011;6392;44.644;11.448;2023-02-08T11:01:31;21.50;;;10.67;;
12654;SDS011;6392;44.644;11.448;2023-02-08T11:03:59;19.13;;;10.03;;
12654;SDS011;6392;44.644;11.448;2023-02-08T11:06:28;19.67;;;11.13;;
12654;SDS011;6392;44.644;11.448;2023-02-08T11:08:55;22.73;;;11.33;;
12654;SDS011;6392;44.644;11.448;2023-02-08T11:11:23;21.67;;;10.97;;
12654;SDS011;6392;44.644;11.448;2023-02-08T11:13:53;20.00;;;10.97;;
12654;SDS011;6392;44.644;11.448;2023-02-08T11:16:32;22.33;;;10.80;;
12654;SDS011;6392;44.644;11.448;2023-02-08T11:19:00;15.33;;;10.37;;
12654;SDS011;6392;44.644;11.448;2023-02-08T11:21:33;20.90;;;11.80;;
12654;SDS011;6392;44.644;11.448;2023-02-08T11:24:03;23.50;;;10.47;;
12654;SDS011;6392;44.644;11.448;2023-02-08T11:26:43;20.57;;;11.53;;
12654;SDS011;6392;44.644;11.448;2023-02-08T11:29:12;23.37;;;11.70;;
12654;SDS011;6392;44.644;11.448;2023-02-08T11:31:40;18.57;;;9.70;;
12654;SDS011;6392;44.644;11.448;2023-02-08T11:34:23;17.87;;;9.77;;
12654;SDS011;6392;44.644;11.448;2023-02-08T11:36:52;18.20;;;9.67;;
12654;SDS011;6392;44.644;11.448;2023-02-08T11:39:22;21.67;;;10.70;;
12654;SDS011;6392;44.644;11.448;2023-02-08T11:41:53;17.67;;;10.20;;
12654;SDS011;6392;44.644;11.448;2023-02-08T11:44:26;18.00;;;9.83;;
12654;SDS011;6392;44.644;11.448;2023-02-08T11:46:56;19.57;;;9.67;;
12654;SDS011;6392;44.644;11.448;2023-02-08T11:49:25;16.20;;;9.10;;
12654;SDS011;6392;44.644;11.448;2023-02-08T11:51:56;19.27;;;9.03;;
12654;SDS011;6392;44.644;11.448;2023-02-08T11:54:33;19.17;;;10.27;;
12654;SDS011;6392;44.644;11.448;2023-02-08T11:57:08;14.10;;;8.40;;
12654;SDS011;6392;44.644;11.448;2023-02-08T11:59:38;14.80;;;8.30;;
12654;SDS011;6392;44.644;11.448;2023-02-08T12:02:25;16.43;;;9.13;;
12654;SDS011;6392;44.644;11.448;2023-02-08T12:04:55;14.67;;;7.80;;
12654;SDS011;6392;44.644;11.448;2023-02-08T12:07:25;12.77;;;6.53;;
12654;SDS011;6392;44.644;11.448;2023-02-08T12:10:14;13.00;;;6.73;;
12654;SDS011;6392;44.644;11.448;2023-02-08T12:16:10;12.77;;;7.60;;
12654;SDS011;6392;44.644;11.448;2023-02-08T12:18:58;13.83;;;7.47;;
12654;SDS011;6392;44.644;11.448;2023-02-08T12:21:39;15.20;;;7.77;;
12654;SDS011;6392;44.644;11.448;2023-02-08T12:24:11;16.40;;;7.70;;
12654;SDS011;6392;44.644;11.448;2023-02-08T12:26:52;17.00;;;8.37;;
12654;SDS011;6392;44.644;11.448;2023-02-08T12:29:39;14.03;;;7.53;;
12654;SDS011;6392;44.644;11.448;2023-02-08T12:32:14;12.00;;;6.03;;
12654;SDS011;6392;44.644;11.448;2023-02-08T12:35:06;12.40;;;6.30;;
12654;SDS011;6392;44.644;11.448;2023-02-08T12:37:55;10.40;;;6.33;;
12654;SDS011;6392;44.644;11.448;2023-02-08T12:40:48;9.77;;;5.47;;
12654;SDS011;6392;44.644;11.448;2023-02-08T12:43:26;10.57;;;5.53;;
12654;SDS011;6392;44.644;11.448;2023-02-08T12:46:05;9.93;;;5.70;;
12654;SDS011;6392;44.644;11.448;2023-02-08T12:48:49;11.10;;;5.40;;
12654;SDS011;6392;44.644;11.448;2023-02-08T12:51:28;10.90;;;6.13;;
12654;SDS011;6392;44.644;11.448;2023-02-08T12:54:03;10.57;;;5.90;;
12654;SDS011;6392;44.644;11.448;2023-02-08T12:56:38;10.90;;;5.93;;
12654;SDS011;6392;44.644;11.448;2023-02-08T12:59:10;9.80;;;5.80;;
12654;SDS011;6392;44.644;11.448;2023-02-08T13:01:47;11.20;;;5.57;;
12654;SDS011;6392;44.644;11.448;2023-02-08T13:04:21;8.63;;;5.53;;
12654;SDS011;6392;44.644;11.448;2023-02-08T13:06:57;8.60;;;5.53;;
12654;SDS011;6392;44.644;11.448;2023-02-08T13:09:33;10.47;;;5.73;;
12654;SDS011;6392;44.644;11.448;2023-02-08T13:12:10;12.03;;;5.17;;
12654;SDS011;6392;44.644;11.448;2023-02-08T13:14:42;11.87;;;6.37;;
12654;SDS011;6392;44.644;11.448;2023-02-08T13:17:12;11.80;;;5.40;;
12654;SDS011;6392;44.644;11.448;2023-02-08T13:19:47;10.10;;;5.90;;
12654;SDS011;6392;44.644;11.448;2023-02-08T13:22:19;8.27;;;4.80;;
12654;SDS011;6392;44.644;11.448;2023-02-08T13:24:47;10.43;;;5.00;;
12654;SDS011;6392;44.644;11.448;2023-02-08T13:27:20;11.17;;;5.70;;
12654;SDS011;6392;44.644;11.448;2023-02-08T13:29:48;9.33;;;5.30;;
12654;SDS011;6392;44.644;11.448;2023-02-08T13:32:18;10.93;;;5.17;;
12654;SDS011;6392;44.644;11.448;2023-02-08T13:34:54;9.60;;;5.43;;
12654;SDS011;6392;44.644;11.448;2023-02-08T13:37:24;11.77;;;5.50;;
12654;SDS011;6392;44.644;11.448;2023-02-08T13:39:58;10.07;;;5.47;;
12654;SDS011;6392;44.644;11.448;2023-02-08T13:42:32;9.83;;;5.63;;
12654;SDS011;6392;44.644;11.448;2023-02-08T13:45:02;9.27;;;5.03;;
12654;SDS011;6392;44.644;11.448;2023-02-08T13:47:32;11.63;;;5.93;;
12654;SDS011;6392;44.644;11.448;2023-02-08T13:50:08;10.23;;;4.87;;
12654;SDS011;6392;44.644;11.448;2023-02-08T13:53:09;12.83;;;6.17;;
12654;SDS011;6392;44.644;11.448;2023-02-08T13:58:35;11.50;;;5.43;;
12654;SDS011;6392;44.644;11.448;2023-02-08T14:01:36;11.70;;;5.27;;
12654;SDS011;6392;44.644;11.448;2023-02-08T14:04:56;7.70;;;4.67;;
12654;SDS011;6392;44.644;11.448;2023-02-08T14:07:41;11.17;;;5.37;;
12654;SDS011;6392;44.644;11.448;2023-02-08T14:10:19;12.93;;;5.80;;
12654;SDS011;6392;44.644;11.448;2023-02-08T14:12:53;9.40;;;5.33;;
12654;SDS011;6392;44.644;11.448;2023-02-08T14:15:24;12.90;;;5.63;;
12654;SDS011;6392;44.644;11.448;2023-02-08T14:17:54;12.07;;;4.73;;
12654;SDS011;6392;44.644;11.448;2023-02-08T14:20:26;9.43;;;5.23;;
12654;SDS011;6392;44.644;11.448;2023-02-08T14:23:00;9.57;;;5.50;;
12654;SDS011;6392;44.644;11.448;2023-02-08T14:25:36;9.73;;;5.57;;
12654;SDS011;6392;44.644;11.448;2023-02-08T14:28:06;9.73;;;5.23;;
12654;SDS011;6392;44.644;11.448;2023-02-08T14:30:52;14.73;;;6.87;;
12654;SDS011;6392;44.644;11.448;2023-02-08T14:33:22;10.20;;;5.47;;
12654;SDS011;6392;44.644;11.448;2023-02-08T14:35:54;12.87;;;5.43;;
12654;SDS011;6392;44.644;11.448;2023-02-08T14:41:47;8.03;;;4.47;;
12654;SDS011;6392;44.644;11.448;2023-02-08T14:50:27;6.53;;;4.73;;
12654;SDS011;6392;44.644;11.448;2023-02-08T14:53:03;9.73;;;5.03;;
12654;SDS011;6392;44.644;11.448;2023-02-08T14:55:41;8.07;;;4.93;;
12654;SDS011;6392;44.644;11.448;2023-02-08T14:58:21;10.23;;;5.47;;
12654;SDS011;6392;44.644;11.448;2023-02-08T15:00:53;10.67;;;4.97;;
12654;SDS011;6392;44.644;11.448;2023-02-08T15:03:22;11.30;;;5.77;;
12654;SDS011;6392;44.644;11.448;2023-02-08T15:06:02;10.17;;;5.50;;
12654;SDS011;6392;44.644;11.448;2023-02-08T15:09:00;9.07;;;5.03;;
12654;SDS011;6392;44.644;11.448;2023-02-08T15:11:29;9.00;;;5.20;;
12654;SDS011;6392;44.644;11.448;2023-02-08T15:13:59;8.57;;;5.20;;
12654;SDS011;6392;44.644;11.448;2023-02-08T15:16:29;7.93;;;5.00;;
12654;SDS011;6392;44.644;11.448;2023-02-08T15:19:00;8.67;;;5.57;;
12654;SDS011;6392;44.644;11.448;2023-02-08T15:21:29;8.33;;;5.13;;